sensor_id;sensor_type;location;lat;lon;timestamp;P1;durP1;ratioP1;P2;durP2;ratioP2
18265;SDS011;9259;48.194;16.322;2023-03-19T00:00:30;20.60;;;8.87;;
18265;SDS011;9259;48.194;16.322;2023-03-19T00:02:58;17.47;;;8.60;;
18265;SDS011;9259;48.194;16.322;2023-03-19T00:05:26;18.60;;;8.93;;
18265;SDS011;9259;48.194;16.322;2023-03-19T00:07:54;17.00;;;9.37;;
18265;SDS011;9259;48.194;16.322;2023-03-19T00:10:22;18.73;;;8.90;;
18265;SDS011;9259;48.194;16.322;2023-03-19T00:12:50;16.33;;;8.20;;
18265;SDS011;9259;48.194;16.322;2023-03-19T00:15:19;23.43;;;9.17;;
18265;SDS011;9259;48.194;16.322;2023-03-19T00:17:47;24.70;;;8.57;;
18265;SDS011;9259;48.194;16.322;2023-03-19T00:20:15;14.83;;;7.67;;
18265;SDS011;9259;48.194;16.322;2023-03-19T00:22:45;19.40;;;8.20;;
18265;SDS011;9259;48.194;16.322;2023-03-19T00:25:13;18.83;;;8.73;;
18265;SDS011;9259;48.194;16.322;2023-03-19T00:27:40;17.43;;;8.73;;
18265;SDS011;9259;48.194;16.322;2023-03-19T00:30:09;21.03;;;9.30;;
18265;SDS011;9259;48.194;16.322;2023-03-19T00:32:39;16.43;;;7.77;;
18265;SDS011;9259;48.194;16.322;2023-03-19T00:35:08;16.83;;;7.90;;
18265;SDS011;9259;48.194;16.322;2023-03-19T00:37:37;21.27;;;8.67;;
18265;SDS011;9259;48.194;16.322;2023-03-19T00:40:05;17.40;;;8.30;;
18265;SDS011;9259;48.194;16.322;2023-03-19T00:42:34;19.67;;;8.63;;
18265;SDS011;9259;48.194;16.322;2023-03-19T00:45:03;15.67;;;8.10;;
18265;SDS011;9259;48.194;16.322;2023-03-19T00:47:32;14.67;;;8.43;;
18265;SDS011;9259;48.194;16.322;2023-03-19T00:50:02;17.97;;;8.87;;
18265;SDS011;9259;48.194;16.322;2023-03-19T00:52:31;14.63;;;8.03;;
18265;SDS011;9259;48.194;16.322;2023-03-19T00:54:59;17.07;;;8.23;;
18265;SDS011;9259;48.194;16.322;2023-03-19T00:57:27;16.73;;;8.73;;
18265;SDS011;9259;48.194;16.322;2023-03-19T00:59:55;16.70;;;8.27;;
18265;SDS011;9259;48.194;16.322;2023-03-19T01:02:23;17.90;;;8.53;;
18265;SDS011;9259;48.194;16.322;2023-03-19T01:04:51;14.10;;;7.37;;
18265;SDS011;9259;48.194;16.322;2023-03-19T01:07:21;23.83;;;8.90;;
18265;SDS011;9259;48.194;16.322;2023-03-19T01:09:49;18.63;;;8.77;;
18265;SDS011;9259;48.194;16.322;2023-03-19T01:12:17;15.27;;;8.20;;
18265;SDS011;9259;48.194;16.322;2023-03-19T01:14:45;21.03;;;8.90;;
18265;SDS011;9259;48.194;16.322;2023-03-19T01:17:13;16.27;;;7.97;;
18265;SDS011;9259;48.194;16.322;2023-03-19T01:19:41;17.10;;;8.13;;
18265;SDS011;9259;48.194;16.322;2023-03-19T01:22:09;17.30;;;8.20;;
18265;SDS011;9259;48.194;16.322;2023-03-19T01:24:39;15.83;;;8.40;;
18265;SDS011;9259;48.194;16.322;2023-03-19T01:27:07;16.10;;;8.60;;
18265;SDS011;9259;48.194;16.322;2023-03-19T01:29:35;15.93;;;8.33;;
18265;SDS011;9259;48.194;16.322;2023-03-19T01:32:03;21.73;;;8.33;;
18265;SDS011;9259;48.194;16.322;2023-03-19T01:34:32;17.50;;;8.53;;
18265;SDS011;9259;48.194;16.322;2023-03-19T01:37:00;17.13;;;8.13;;
18265;SDS011;9259;48.194;16.322;2023-03-19T01:39:28;18.67;;;9.07;;
18265;SDS011;9259;48.194;16.322;2023-03-19T01:42:00;16.03;;;7.53;;
18265;SDS011;9259;48.194;16.322;2023-03-19T01:44:29;20.20;;;8.23;;
18265;SDS011;9259;48.194;16.322;2023-03-19T01:47:00;18.70;;;9.07;;
18265;SDS011;9259;48.194;16.322;2023-03-19T01:49:33;19.53;;;8.33;;
18265;SDS011;9259;48.194;16.322;2023-03-19T01:52:01;17.87;;;8.33;;
18265;SDS011;9259;48.194;16.322;2023-03-19T01:54:32;15.60;;;8.53;;
18265;SDS011;9259;48.194;16.322;2023-03-19T01:57:04;14.33;;;8.00;;
18265;SDS011;9259;48.194;16.322;2023-03-19T01:59:37;13.73;;;7.57;;
18265;SDS011;9259;48.194;16.322;2023-03-19T02:02:08;16.53;;;7.97;;
18265;SDS011;9259;48.194;16.322;2023-03-19T02:04:41;15.97;;;8.10;;
18265;SDS011;9259;48.194;16.322;2023-03-19T02:07:11;16.90;;;8.53;;
18265;SDS011;9259;48.194;16.322;2023-03-19T02:09:41;17.57;;;8.57;;
18265;SDS011;9259;48.194;16.322;2023-03-19T02:12:10;17.13;;;8.40;;
18265;SDS011;9259;48.194;16.322;2023-03-19T02:14:39;18.40;;;8.37;;
18265;SDS011;9259;48.194;16.322;2023-03-19T02:17:07;15.07;;;7.50;;
18265;SDS011;9259;48.194;16.322;2023-03-19T02:19:37;17.23;;;7.50;;
18265;SDS011;9259;48.194;16.322;2023-03-19T02:22:11;18.20;;;7.93;;
18265;SDS011;9259;48.194;16.322;2023-03-19T02:24:43;15.47;;;8.17;;
18265;SDS011;9259;48.194;16.322;2023-03-19T02:27:16;16.43;;;8.27;;
18265;SDS011;9259;48.194;16.322;2023-03-19T02:29:44;17.63;;;8.20;;
18265;SDS011;9259;48.194;16.322;2023-03-19T02:32:12;16.03;;;8.27;;
18265;SDS011;9259;48.194;16.322;2023-03-19T02:34:41;15.47;;;8.17;;
18265;SDS011;9259;48.194;16.322;2023-03-19T02:37:11;16.00;;;8.70;;
18265;SDS011;9259;48.194;16.322;2023-03-19T02:39:45;16.07;;;8.23;;
18265;SDS011;9259;48.194;16.322;2023-03-19T02:42:19;17.53;;;8.10;;
18265;SDS011;9259;48.194;16.322;2023-03-19T02:44:48;16.63;;;7.57;;
18265;SDS011;9259;48.194;16.322;2023-03-19T02:47:16;17.23;;;8.70;;
18265;SDS011;9259;48.194;16.322;2023-03-19T02:49:45;18.33;;;8.70;;
18265;SDS011;9259;48.194;16.322;2023-03-19T02:52:13;17.20;;;8.23;;
18265;SDS011;9259;48.194;16.322;2023-03-19T02:54:41;20.43;;;8.40;;
18265;SDS011;9259;48.194;16.322;2023-03-19T02:57:09;18.87;;;8.73;;
18265;SDS011;9259;48.194;16.322;2023-03-19T02:59:39;16.90;;;8.57;;
18265;SDS011;9259;48.194;16.322;2023-03-19T03:02:07;16.07;;;7.87;;
18265;SDS011;9259;48.194;16.322;2023-03-19T03:04:35;15.90;;;7.53;;
18265;SDS011;9259;48.194;16.322;2023-03-19T03:07:04;14.77;;;7.97;;
18265;SDS011;9259;48.194;16.322;2023-03-19T03:09:33;14.60;;;7.83;;
18265;SDS011;9259;48.194;16.322;2023-03-19T03:12:01;16.73;;;8.43;;
18265;SDS011;9259;48.194;16.322;2023-03-19T03:14:30;17.37;;;8.30;;
18265;SDS011;9259;48.194;16.322;2023-03-19T03:17:01;16.27;;;8.10;;
18265;SDS011;9259;48.194;16.322;2023-03-19T03:19:29;22.37;;;7.97;;
18265;SDS011;9259;48.194;16.322;2023-03-19T03:21:57;17.57;;;7.87;;
18265;SDS011;9259;48.194;16.322;2023-03-19T03:24:26;18.23;;;9.10;;
18265;SDS011;9259;48.194;16.322;2023-03-19T03:26:54;16.17;;;8.90;;
18265;SDS011;9259;48.194;16.322;2023-03-19T03:29:22;18.30;;;8.67;;
18265;SDS011;9259;48.194;16.322;2023-03-19T03:31:50;19.53;;;9.40;;
18265;SDS011;9259;48.194;16.322;2023-03-19T03:34:19;17.30;;;8.60;;
18265;SDS011;9259;48.194;16.322;2023-03-19T03:36:47;18.43;;;8.57;;
18265;SDS011;9259;48.194;16.322;2023-03-19T03:39:16;16.90;;;8.47;;
18265;SDS011;9259;48.194;16.322;2023-03-19T03:41:44;17.23;;;8.37;;
18265;SDS011;9259;48.194;16.322;2023-03-19T03:44:12;19.17;;;8.97;;
18265;SDS011;9259;48.194;16.322;2023-03-19T03:46:40;15.53;;;8.37;;
18265;SDS011;9259;48.194;16.322;2023-03-19T03:49:09;18.20;;;8.30;;
18265;SDS011;9259;48.194;16.322;2023-03-19T03:51:38;18.60;;;8.57;;
18265;SDS011;9259;48.194;16.322;2023-03-19T03:54:07;26.03;;;8.67;;
18265;SDS011;9259;48.194;16.322;2023-03-19T03:56:35;18.57;;;8.57;;
18265;SDS011;9259;48.194;16.322;2023-03-19T03:59:03;16.93;;;8.87;;
18265;SDS011;9259;48.194;16.322;2023-03-19T04:01:32;14.83;;;8.03;;
18265;SDS011;9259;48.194;16.322;2023-03-19T04:04:00;18.03;;;7.80;;
18265;SDS011;9259;48.194;16.322;2023-03-19T04:06:28;15.80;;;7.40;;
18265;SDS011;9259;48.194;16.322;2023-03-19T04:08:58;17.33;;;8.87;;
18265;SDS011;9259;48.194;16.322;2023-03-19T04:11:26;18.40;;;8.73;;
18265;SDS011;9259;48.194;16.322;2023-03-19T04:13:54;18.40;;;9.07;;
18265;SDS011;9259;48.194;16.322;2023-03-19T04:16:23;17.20;;;8.10;;
18265;SDS011;9259;48.194;16.322;2023-03-19T04:18:53;18.87;;;9.13;;
18265;SDS011;9259;48.194;16.322;2023-03-19T04:21:21;16.33;;;8.37;;
18265;SDS011;9259;48.194;16.322;2023-03-19T04:23:49;18.60;;;9.13;;
18265;SDS011;9259;48.194;16.322;2023-03-19T04:26:19;20.10;;;9.37;;
18265;SDS011;9259;48.194;16.322;2023-03-19T04:28:47;20.93;;;9.20;;
18265;SDS011;9259;48.194;16.322;2023-03-19T04:31:15;24.63;;;10.07;;
18265;SDS011;9259;48.194;16.322;2023-03-19T04:33:43;18.07;;;8.73;;
18265;SDS011;9259;48.194;16.322;2023-03-19T04:36:11;20.27;;;10.40;;
18265;SDS011;9259;48.194;16.322;2023-03-19T04:38:40;17.33;;;9.43;;
18265;SDS011;9259;48.194;16.322;2023-03-19T04:41:08;20.90;;;10.03;;
18265;SDS011;9259;48.194;16.322;2023-03-19T04:43:37;22.07;;;10.47;;
18265;SDS011;9259;48.194;16.322;2023-03-19T04:46:06;20.03;;;10.23;;
18265;SDS011;9259;48.194;16.322;2023-03-19T04:48:34;20.97;;;9.77;;
18265;SDS011;9259;48.194;16.322;2023-03-19T04:51:02;18.67;;;9.83;;
18265;SDS011;9259;48.194;16.322;2023-03-19T04:53:33;18.93;;;8.80;;
18265;SDS011;9259;48.194;16.322;2023-03-19T04:56:01;20.07;;;9.60;;
18265;SDS011;9259;48.194;16.322;2023-03-19T04:58:29;19.13;;;9.87;;
18265;SDS011;9259;48.194;16.322;2023-03-19T05:00:58;20.97;;;9.13;;
18265;SDS011;9259;48.194;16.322;2023-03-19T05:03:26;17.97;;;9.73;;
18265;SDS011;9259;48.194;16.322;2023-03-19T05:05:54;19.60;;;9.30;;
18265;SDS011;9259;48.194;16.322;2023-03-19T05:08:23;17.50;;;9.50;;
18265;SDS011;9259;48.194;16.322;2023-03-19T05:10:51;18.10;;;9.27;;
18265;SDS011;9259;48.194;16.322;2023-03-19T05:13:19;18.60;;;9.40;;
18265;SDS011;9259;48.194;16.322;2023-03-19T05:15:47;21.00;;;9.73;;
18265;SDS011;9259;48.194;16.322;2023-03-19T05:18:20;20.23;;;9.90;;
18265;SDS011;9259;48.194;16.322;2023-03-19T05:20:48;19.63;;;9.13;;
18265;SDS011;9259;48.194;16.322;2023-03-19T05:23:16;15.73;;;8.53;;
18265;SDS011;9259;48.194;16.322;2023-03-19T05:25:44;19.80;;;9.47;;
18265;SDS011;9259;48.194;16.322;2023-03-19T05:28:13;20.87;;;10.10;;
18265;SDS011;9259;48.194;16.322;2023-03-19T05:30:41;19.33;;;9.73;;
18265;SDS011;9259;48.194;16.322;2023-03-19T05:33:10;19.77;;;9.03;;
18265;SDS011;9259;48.194;16.322;2023-03-19T05:35:39;18.67;;;9.70;;
18265;SDS011;9259;48.194;16.322;2023-03-19T05:38:07;21.87;;;10.20;;
18265;SDS011;9259;48.194;16.322;2023-03-19T05:40:36;21.40;;;9.83;;
18265;SDS011;9259;48.194;16.322;2023-03-19T05:43:06;22.50;;;10.47;;
18265;SDS011;9259;48.194;16.322;2023-03-19T05:45:35;24.27;;;10.30;;
18265;SDS011;9259;48.194;16.322;2023-03-19T05:48:03;19.93;;;10.43;;
18265;SDS011;9259;48.194;16.322;2023-03-19T05:50:32;18.53;;;9.50;;
18265;SDS011;9259;48.194;16.322;2023-03-19T05:53:01;23.77;;;9.83;;
18265;SDS011;9259;48.194;16.322;2023-03-19T05:55:29;20.00;;;10.20;;
18265;SDS011;9259;48.194;16.322;2023-03-19T05:57:58;20.73;;;9.70;;
18265;SDS011;9259;48.194;16.322;2023-03-19T06:00:26;24.27;;;10.50;;
18265;SDS011;9259;48.194;16.322;2023-03-19T06:02:54;20.60;;;10.43;;
18265;SDS011;9259;48.194;16.322;2023-03-19T06:05:22;19.07;;;10.33;;
18265;SDS011;9259;48.194;16.322;2023-03-19T06:07:50;24.70;;;10.50;;
18265;SDS011;9259;48.194;16.322;2023-03-19T06:10:20;19.60;;;9.37;;
18265;SDS011;9259;48.194;16.322;2023-03-19T06:12:48;20.07;;;9.47;;
18265;SDS011;9259;48.194;16.322;2023-03-19T06:15:16;21.57;;;10.43;;
18265;SDS011;9259;48.194;16.322;2023-03-19T06:17:44;20.50;;;9.83;;
18265;SDS011;9259;48.194;16.322;2023-03-19T06:20:13;25.03;;;10.93;;
18265;SDS011;9259;48.194;16.322;2023-03-19T06:22:41;20.77;;;10.17;;
18265;SDS011;9259;48.194;16.322;2023-03-19T06:25:09;20.37;;;10.37;;
18265;SDS011;9259;48.194;16.322;2023-03-19T06:27:39;18.53;;;10.13;;
18265;SDS011;9259;48.194;16.322;2023-03-19T06:30:07;21.73;;;9.53;;
18265;SDS011;9259;48.194;16.322;2023-03-19T06:32:36;20.53;;;9.03;;
18265;SDS011;9259;48.194;16.322;2023-03-19T06:35:05;20.07;;;9.87;;
18265;SDS011;9259;48.194;16.322;2023-03-19T06:37:33;22.43;;;10.03;;
18265;SDS011;9259;48.194;16.322;2023-03-19T06:40:02;19.77;;;10.70;;
18265;SDS011;9259;48.194;16.322;2023-03-19T06:42:31;22.83;;;10.27;;
18265;SDS011;9259;48.194;16.322;2023-03-19T06:45:00;18.37;;;9.83;;
18265;SDS011;9259;48.194;16.322;2023-03-19T06:47:28;19.73;;;10.23;;
18265;SDS011;9259;48.194;16.322;2023-03-19T06:49:57;21.50;;;10.50;;
18265;SDS011;9259;48.194;16.322;2023-03-19T06:52:25;19.13;;;9.90;;
18265;SDS011;9259;48.194;16.322;2023-03-19T06:54:54;24.63;;;11.40;;
18265;SDS011;9259;48.194;16.322;2023-03-19T06:57:22;20.23;;;10.87;;
18265;SDS011;9259;48.194;16.322;2023-03-19T06:59:50;22.37;;;10.90;;
18265;SDS011;9259;48.194;16.322;2023-03-19T07:02:19;20.83;;;9.53;;
18265;SDS011;9259;48.194;16.322;2023-03-19T07:04:48;22.63;;;10.37;;
18265;SDS011;9259;48.194;16.322;2023-03-19T07:07:17;19.27;;;8.63;;
18265;SDS011;9259;48.194;16.322;2023-03-19T07:09:45;20.67;;;10.60;;
18265;SDS011;9259;48.194;16.322;2023-03-19T07:12:13;20.70;;;10.73;;
18265;SDS011;9259;48.194;16.322;2023-03-19T07:14:41;22.57;;;10.77;;
18265;SDS011;9259;48.194;16.322;2023-03-19T07:17:10;20.97;;;11.27;;
18265;SDS011;9259;48.194;16.322;2023-03-19T07:19:40;22.63;;;10.97;;
18265;SDS011;9259;48.194;16.322;2023-03-19T07:22:08;21.20;;;10.63;;
18265;SDS011;9259;48.194;16.322;2023-03-19T07:24:36;18.20;;;9.97;;
18265;SDS011;9259;48.194;16.322;2023-03-19T07:27:04;19.73;;;10.03;;
18265;SDS011;9259;48.194;16.322;2023-03-19T07:29:32;17.27;;;9.83;;
18265;SDS011;9259;48.194;16.322;2023-03-19T07:32:01;17.27;;;10.13;;
18265;SDS011;9259;48.194;16.322;2023-03-19T07:34:29;20.93;;;10.27;;
18265;SDS011;9259;48.194;16.322;2023-03-19T07:36:59;17.13;;;9.87;;
18265;SDS011;9259;48.194;16.322;2023-03-19T07:39:27;21.13;;;10.73;;
18265;SDS011;9259;48.194;16.322;2023-03-19T07:41:55;22.53;;;9.90;;
18265;SDS011;9259;48.194;16.322;2023-03-19T07:44:23;18.57;;;10.17;;
18265;SDS011;9259;48.194;16.322;2023-03-19T07:46:51;17.10;;;9.63;;
18265;SDS011;9259;48.194;16.322;2023-03-19T07:49:21;18.43;;;9.90;;
18265;SDS011;9259;48.194;16.322;2023-03-19T07:51:49;18.47;;;10.10;;
18265;SDS011;9259;48.194;16.322;2023-03-19T07:54:18;20.17;;;10.60;;
18265;SDS011;9259;48.194;16.322;2023-03-19T07:56:48;19.13;;;10.63;;
18265;SDS011;9259;48.194;16.322;2023-03-19T07:59:16;19.20;;;10.43;;
18265;SDS011;9259;48.194;16.322;2023-03-19T08:01:44;21.73;;;9.90;;
18265;SDS011;9259;48.194;16.322;2023-03-19T08:04:12;17.63;;;10.10;;
18265;SDS011;9259;48.194;16.322;2023-03-19T08:06:41;17.53;;;10.17;;
18265;SDS011;9259;48.194;16.322;2023-03-19T08:09:09;19.67;;;10.70;;
18265;SDS011;9259;48.194;16.322;2023-03-19T08:11:39;18.40;;;10.60;;
18265;SDS011;9259;48.194;16.322;2023-03-19T08:14:07;15.60;;;9.70;;
18265;SDS011;9259;48.194;16.322;2023-03-19T08:16:35;16.23;;;9.67;;
18265;SDS011;9259;48.194;16.322;2023-03-19T08:19:03;16.67;;;9.87;;
18265;SDS011;9259;48.194;16.322;2023-03-19T08:21:31;17.70;;;9.80;;
18265;SDS011;9259;48.194;16.322;2023-03-19T08:23:59;15.60;;;9.90;;
18265;SDS011;9259;48.194;16.322;2023-03-19T08:26:28;18.30;;;10.03;;
18265;SDS011;9259;48.194;16.322;2023-03-19T08:28:58;19.57;;;10.37;;
18265;SDS011;9259;48.194;16.322;2023-03-19T08:31:28;23.73;;;10.30;;
18265;SDS011;9259;48.194;16.322;2023-03-19T08:33:57;19.23;;;10.40;;
18265;SDS011;9259;48.194;16.322;2023-03-19T08:36:27;17.93;;;10.00;;
18265;SDS011;9259;48.194;16.322;2023-03-19T08:38:56;17.00;;;10.43;;
18265;SDS011;9259;48.194;16.322;2023-03-19T08:41:25;20.53;;;10.57;;
18265;SDS011;9259;48.194;16.322;2023-03-19T08:43:53;19.43;;;10.90;;
18265;SDS011;9259;48.194;16.322;2023-03-19T08:46:22;19.73;;;10.90;;
18265;SDS011;9259;48.194;16.322;2023-03-19T08:48:51;19.83;;;10.90;;
18265;SDS011;9259;48.194;16.322;2023-03-19T08:51:20;16.70;;;10.60;;
18265;SDS011;9259;48.194;16.322;2023-03-19T08:53:50;19.60;;;10.50;;
18265;SDS011;9259;48.194;16.322;2023-03-19T08:56:18;25.27;;;11.20;;
18265;SDS011;9259;48.194;16.322;2023-03-19T08:58:46;17.77;;;10.50;;
18265;SDS011;9259;48.194;16.322;2023-03-19T09:01:15;21.17;;;10.63;;
18265;SDS011;9259;48.194;16.322;2023-03-19T09:03:44;17.50;;;10.47;;
18265;SDS011;9259;48.194;16.322;2023-03-19T09:06:12;20.93;;;10.80;;
18265;SDS011;9259;48.194;16.322;2023-03-19T09:08:41;19.43;;;11.23;;
18265;SDS011;9259;48.194;16.322;2023-03-19T09:11:09;22.13;;;11.50;;
18265;SDS011;9259;48.194;16.322;2023-03-19T09:13:39;20.17;;;11.20;;
18265;SDS011;9259;48.194;16.322;2023-03-19T09:16:07;19.50;;;10.37;;
18265;SDS011;9259;48.194;16.322;2023-03-19T09:18:35;19.97;;;11.63;;
18265;SDS011;9259;48.194;16.322;2023-03-19T09:21:05;21.20;;;11.67;;
18265;SDS011;9259;48.194;16.322;2023-03-19T09:23:33;19.10;;;11.40;;
18265;SDS011;9259;48.194;16.322;2023-03-19T09:26:01;17.13;;;10.67;;
18265;SDS011;9259;48.194;16.322;2023-03-19T09:28:29;20.73;;;11.07;;
18265;SDS011;9259;48.194;16.322;2023-03-19T09:30:57;20.07;;;11.93;;
18265;SDS011;9259;48.194;16.322;2023-03-19T09:33:31;18.83;;;11.17;;
18265;SDS011;9259;48.194;16.322;2023-03-19T09:36:00;20.43;;;10.77;;
18265;SDS011;9259;48.194;16.322;2023-03-19T09:38:29;20.60;;;12.00;;
18265;SDS011;9259;48.194;16.322;2023-03-19T09:41:02;24.53;;;11.53;;
18265;SDS011;9259;48.194;16.322;2023-03-19T09:43:36;19.97;;;11.23;;
18265;SDS011;9259;48.194;16.322;2023-03-19T09:46:25;20.47;;;11.17;;
18265;SDS011;9259;48.194;16.322;2023-03-19T09:48:57;17.73;;;11.00;;
18265;SDS011;9259;48.194;16.322;2023-03-19T09:51:32;20.23;;;11.37;;
18265;SDS011;9259;48.194;16.322;2023-03-19T09:54:07;19.40;;;10.93;;
18265;SDS011;9259;48.194;16.322;2023-03-19T09:56:45;18.70;;;10.80;;
18265;SDS011;9259;48.194;16.322;2023-03-19T09:59:13;19.57;;;11.10;;
18265;SDS011;9259;48.194;16.322;2023-03-19T10:01:51;19.93;;;11.43;;
18265;SDS011;9259;48.194;16.322;2023-03-19T10:04:31;17.60;;;10.63;;
18265;SDS011;9259;48.194;16.322;2023-03-19T10:07:07;20.43;;;12.00;;
18265;SDS011;9259;48.194;16.322;2023-03-19T10:09:47;18.17;;;10.47;;
18265;SDS011;9259;48.194;16.322;2023-03-19T10:12:24;19.43;;;11.40;;
18265;SDS011;9259;48.194;16.322;2023-03-19T10:15:00;19.50;;;11.87;;
18265;SDS011;9259;48.194;16.322;2023-03-19T10:17:31;19.37;;;11.00;;
18265;SDS011;9259;48.194;16.322;2023-03-19T10:20:02;20.90;;;11.67;;
18265;SDS011;9259;48.194;16.322;2023-03-19T10:22:33;19.57;;;11.43;;
18265;SDS011;9259;48.194;16.322;2023-03-19T10:25:07;21.80;;;11.88;;
18265;SDS011;9259;48.194;16.322;2023-03-19T10:27:37;19.90;;;12.00;;
18265;SDS011;9259;48.194;16.322;2023-03-19T10:30:15;22.73;;;11.90;;
18265;SDS011;9259;48.194;16.322;2023-03-19T10:32:44;19.20;;;11.80;;
18265;SDS011;9259;48.194;16.322;2023-03-19T10:35:16;24.83;;;13.20;;
18265;SDS011;9259;48.194;16.322;2023-03-19T10:37:46;19.97;;;11.23;;
18265;SDS011;9259;48.194;16.322;2023-03-19T10:40:19;19.17;;;11.93;;
18265;SDS011;9259;48.194;16.322;2023-03-19T10:43:00;24.73;;;12.47;;
18265;SDS011;9259;48.194;16.322;2023-03-19T10:45:30;18.43;;;11.60;;
18265;SDS011;9259;48.194;16.322;2023-03-19T10:48:00;21.38;;;12.07;;
18265;SDS011;9259;48.194;16.322;2023-03-19T10:50:30;19.10;;;11.43;;
18265;SDS011;9259;48.194;16.322;2023-03-19T10:53:06;21.90;;;12.47;;
18265;SDS011;9259;48.194;16.322;2023-03-19T10:55:49;19.43;;;12.20;;
18265;SDS011;9259;48.194;16.322;2023-03-19T10:58:19;20.52;;;12.38;;
18265;SDS011;9259;48.194;16.322;2023-03-19T11:00:57;20.77;;;12.40;;
18265;SDS011;9259;48.194;16.322;2023-03-19T11:03:30;21.60;;;12.07;;
18265;SDS011;9259;48.194;16.322;2023-03-19T11:06:02;19.73;;;11.80;;
18265;SDS011;9259;48.194;16.322;2023-03-19T11:08:33;21.93;;;12.40;;
18265;SDS011;9259;48.194;16.322;2023-03-19T11:11:03;19.93;;;11.87;;
18265;SDS011;9259;48.194;16.322;2023-03-19T11:13:32;21.27;;;11.90;;
18265;SDS011;9259;48.194;16.322;2023-03-19T11:16:01;24.27;;;13.43;;
18265;SDS011;9259;48.194;16.322;2023-03-19T11:18:35;22.20;;;11.73;;
18265;SDS011;9259;48.194;16.322;2023-03-19T11:21:05;20.17;;;11.77;;
18265;SDS011;9259;48.194;16.322;2023-03-19T11:23:36;21.37;;;11.70;;
18265;SDS011;9259;48.194;16.322;2023-03-19T11:26:07;20.70;;;11.55;;
18265;SDS011;9259;48.194;16.322;2023-03-19T11:28:36;21.63;;;12.02;;
18265;SDS011;9259;48.194;16.322;2023-03-19T11:31:06;21.23;;;12.05;;
18265;SDS011;9259;48.194;16.322;2023-03-19T11:33:41;24.00;;;12.65;;
18265;SDS011;9259;48.194;16.322;2023-03-19T11:36:18;20.48;;;11.85;;
18265;SDS011;9259;48.194;16.322;2023-03-19T11:38:54;18.90;;;11.70;;
18265;SDS011;9259;48.194;16.322;2023-03-19T11:41:32;22.52;;;12.18;;
18265;SDS011;9259;48.194;16.322;2023-03-19T11:44:08;21.30;;;12.32;;
18265;SDS011;9259;48.194;16.322;2023-03-19T11:46:42;20.02;;;11.45;;
18265;SDS011;9259;48.194;16.322;2023-03-19T11:49:22;19.75;;;12.10;;
18265;SDS011;9259;48.194;16.322;2023-03-19T11:51:58;20.83;;;11.05;;
18265;SDS011;9259;48.194;16.322;2023-03-19T11:54:34;22.17;;;11.95;;
18265;SDS011;9259;48.194;16.322;2023-03-19T11:57:12;23.30;;;12.02;;
18265;SDS011;9259;48.194;16.322;2023-03-19T11:59:53;18.83;;;11.38;;
18265;SDS011;9259;48.194;16.322;2023-03-19T12:05:53;19.02;;;11.00;;
18265;SDS011;9259;48.194;16.322;2023-03-19T12:08:29;23.17;;;11.70;;
18265;SDS011;9259;48.194;16.322;2023-03-19T12:11:06;20.70;;;11.15;;
18265;SDS011;9259;48.194;16.322;2023-03-19T12:13:44;18.25;;;11.27;;
18265;SDS011;9259;48.194;16.322;2023-03-19T12:16:33;20.88;;;11.10;;
18265;SDS011;9259;48.194;16.322;2023-03-19T12:19:16;21.45;;;11.23;;
18265;SDS011;9259;48.194;16.322;2023-03-19T12:21:56;20.63;;;11.55;;
18265;SDS011;9259;48.194;16.322;2023-03-19T12:24:31;21.90;;;11.27;;
18265;SDS011;9259;48.194;16.322;2023-03-19T12:27:21;21.40;;;11.00;;
18265;SDS011;9259;48.194;16.322;2023-03-19T12:29:57;18.52;;;11.43;;
18265;SDS011;9259;48.194;16.322;2023-03-19T12:32:31;20.92;;;11.60;;
18265;SDS011;9259;48.194;16.322;2023-03-19T12:35:11;20.52;;;11.00;;
18265;SDS011;9259;48.194;16.322;2023-03-19T12:37:44;17.95;;;10.30;;
18265;SDS011;9259;48.194;16.322;2023-03-19T12:40:20;19.48;;;11.00;;
18265;SDS011;9259;48.194;16.322;2023-03-19T12:42:53;20.10;;;10.60;;
18265;SDS011;9259;48.194;16.322;2023-03-19T12:45:27;18.50;;;10.60;;
18265;SDS011;9259;48.194;16.322;2023-03-19T12:47:59;19.58;;;10.98;;
18265;SDS011;9259;48.194;16.322;2023-03-19T12:50:31;19.45;;;10.57;;
18265;SDS011;9259;48.194;16.322;2023-03-19T12:53:03;18.02;;;10.38;;
18265;SDS011;9259;48.194;16.322;2023-03-19T12:55:35;16.77;;;9.95;;
18265;SDS011;9259;48.194;16.322;2023-03-19T12:58:07;18.83;;;9.80;;
18265;SDS011;9259;48.194;16.322;2023-03-19T13:00:44;18.17;;;10.70;;
18265;SDS011;9259;48.194;16.322;2023-03-19T13:03:18;17.60;;;10.77;;
18265;SDS011;9259;48.194;16.322;2023-03-19T13:05:52;19.20;;;10.77;;
18265;SDS011;9259;48.194;16.322;2023-03-19T13:08:26;20.48;;;10.27;;
18265;SDS011;9259;48.194;16.322;2023-03-19T13:10:56;20.65;;;10.70;;
18265;SDS011;9259;48.194;16.322;2023-03-19T13:13:27;19.08;;;10.40;;
18265;SDS011;9259;48.194;16.322;2023-03-19T13:16:05;18.60;;;10.70;;
18265;SDS011;9259;48.194;16.322;2023-03-19T13:18:42;17.85;;;10.77;;
18265;SDS011;9259;48.194;16.322;2023-03-19T13:21:21;20.33;;;10.52;;
18265;SDS011;9259;48.194;16.322;2023-03-19T13:23:56;18.35;;;10.23;;
18265;SDS011;9259;48.194;16.322;2023-03-19T13:26:27;15.90;;;10.10;;
18265;SDS011;9259;48.194;16.322;2023-03-19T13:28:58;18.88;;;10.93;;
18265;SDS011;9259;48.194;16.322;2023-03-19T13:31:32;22.88;;;10.00;;
18265;SDS011;9259;48.194;16.322;2023-03-19T13:34:01;20.90;;;10.40;;
18265;SDS011;9259;48.194;16.322;2023-03-19T13:36:34;19.55;;;9.93;;
18265;SDS011;9259;48.194;16.322;2023-03-19T13:39:04;17.75;;;9.85;;
18265;SDS011;9259;48.194;16.322;2023-03-19T13:41:52;18.35;;;9.50;;
18265;SDS011;9259;48.194;16.322;2023-03-19T13:44:33;17.25;;;9.73;;
18265;SDS011;9259;48.194;16.322;2023-03-19T13:53:32;17.17;;;9.68;;
18265;SDS011;9259;48.194;16.322;2023-03-19T13:56:02;15.73;;;9.13;;
18265;SDS011;9259;48.194;16.322;2023-03-19T13:58:43;17.52;;;9.57;;
18265;SDS011;9259;48.194;16.322;2023-03-19T14:01:36;19.05;;;8.90;;
18265;SDS011;9259;48.194;16.322;2023-03-19T14:04:14;21.88;;;9.90;;
18265;SDS011;9259;48.194;16.322;2023-03-19T14:06:47;16.33;;;9.35;;
18265;SDS011;9259;48.194;16.322;2023-03-19T14:09:30;20.52;;;9.13;;
18265;SDS011;9259;48.194;16.322;2023-03-19T14:12:08;16.75;;;9.25;;
18265;SDS011;9259;48.194;16.322;2023-03-19T14:14:39;19.73;;;9.18;;
18265;SDS011;9259;48.194;16.322;2023-03-19T14:17:13;18.23;;;9.07;;
18265;SDS011;9259;48.194;16.322;2023-03-19T14:19:43;16.23;;;9.27;;
18265;SDS011;9259;48.194;16.322;2023-03-19T14:22:17;16.65;;;9.23;;
18265;SDS011;9259;48.194;16.322;2023-03-19T14:24:53;18.92;;;10.13;;
18265;SDS011;9259;48.194;16.322;2023-03-19T14:27:24;17.77;;;9.45;;
18265;SDS011;9259;48.194;16.322;2023-03-19T14:29:58;16.60;;;8.82;;
18265;SDS011;9259;48.194;16.322;2023-03-19T14:32:31;19.40;;;9.13;;
18265;SDS011;9259;48.194;16.322;2023-03-19T14:35:02;14.80;;;8.90;;
18265;SDS011;9259;48.194;16.322;2023-03-19T14:37:33;16.65;;;8.93;;
18265;SDS011;9259;48.194;16.322;2023-03-19T14:40:10;19.50;;;9.18;;
18265;SDS011;9259;48.194;16.322;2023-03-19T14:42:42;15.00;;;8.98;;
18265;SDS011;9259;48.194;16.322;2023-03-19T14:45:24;18.92;;;9.32;;
18265;SDS011;9259;48.194;16.322;2023-03-19T14:48:12;18.52;;;8.80;;
18265;SDS011;9259;48.194;16.322;2023-03-19T14:50:50;13.57;;;8.60;;
18265;SDS011;9259;48.194;16.322;2023-03-19T14:53:24;17.88;;;9.02;;
18265;SDS011;9259;48.194;16.322;2023-03-19T14:55:56;18.55;;;9.68;;
18265;SDS011;9259;48.194;16.322;2023-03-19T14:58:32;17.05;;;9.30;;